Time,TemperatureF,DewpointF,PressureIn,WindDirection,WindDirectionDegrees,WindSpeedMPH,WindSpeedGustMPH,Humidity,HourlyPrecipIn,Conditions,Clouds,dailyrainin,SoftwareType,DateUTC
2013-04-15 00:05:00,56.4,50.0,30.09,SE,141,2.0,5.0,78,0.00,,,0.00,weatherlink.com 1.10,2013-04-15 04:05:00,
2013-04-15 00:20:00,56.6,49.0,30.10,ESE,105,3.0,5.0,75,0.00,,,0.00,weatherlink.com 1.10,2013-04-15 04:20:00,
2013-04-15 00:35:00,56.7,49.0,30.11,ESE,119,2.0,4.0,75,0.00,,,0.00,weatherlink.com 1.10,2013-04-15 04:35:00,
2013-04-15 00:50:00,56.5,49.0,30.11,SE,128,2.0,3.0,77,0.00,,,0.00,weatherlink.com 1.10,2013-04-15 04:50:00,
2013-04-15 01:05:00,56.5,49.0,30.11,SE,141,2.0,6.0,77,0.00,,,0.00,weatherlink.com 1.10,2013-04-15 05:05:00,
2013-04-15 01:20:00,56.0,51.0,30.12,ESE,113,3.0,4.0,82,0.00,,,0.00,weatherlink.com 1.10,2013-04-15 05:20:00,
2013-04-15 01:35:00,55.6,51.0,30.11,ESE,104,2.0,3.0,84,0.00,,,0.00,weatherlink.com 1.10,2013-04-15 05:35:00,
2013-04-15 01:50:00,55.6,51.0,30.11,East,96,4.0,4.0,83,0.00,,,0.00,weatherlink.com 1.10,2013-04-15 05:50:00,
2013-04-15 02:05:00,55.6,51.0,30.10,East,83,5.0,6.0,83,0.00,,,0.00,weatherlink.com 1.10,2013-04-15 06:05:00,
2013-04-15 02:20:00,55.7,51.0,30.11,East,89,5.0,6.0,83,0.00,,,0.00,weatherlink.com 1.10,2013-04-15 06:20:00,
2013-04-15 02:35:00,55.5,51.0,30.11,East,89,4.0,5.0,84,0.00,,,0.00,weatherlink.com 1.10,2013-04-15 06:35:00,
2013-04-15 02:50:00,55.5,51.0,30.11,East,94,5.0,6.0,84,0.00,,,0.00,weatherlink.com 1.10,2013-04-15 06:50:00,
2013-04-15 03:05:00,55.5,52.0,30.12,East,95,4.0,5.0,87,0.00,,,0.00,weatherlink.com 1.10,2013-04-15 07:05:00,
2013-04-15 03:50:00,55.3,51.0,30.16,ESE,108,4.0,4.0,86,0.00,,,0.00,weatherlink.com 1.10,2013-04-15 07:50:00,
2013-04-15 04:05:00,55.1,51.0,30.16,East,89,3.0,5.0,87,0.00,,,0.00,weatherlink.com 1.10,2013-04-15 08:05:00,
2013-04-15 04:50:00,54.5,50.0,30.16,ESE,115,8.0,9.0,85,0.00,,,0.00,weatherlink.com 1.10,2013-04-15 08:50:00,
2013-04-15 05:05:00,54.2,51.0,30.16,ESE,105,7.0,9.0,87,0.00,,,0.00,weatherlink.com 1.10,2013-04-15 09:05:00,
2013-04-15 05:20:00,54.3,51.0,30.16,ESE,108,7.0,7.0,87,0.00,,,0.00,weatherlink.com 1.10,2013-04-15 09:20:00,
2013-04-15 05:35:00,54.3,51.0,30.16,East,92,9.0,9.0,87,0.00,,,0.00,weatherlink.com 1.10,2013-04-15 09:35:00,
2013-04-15 05:50:00,54.2,51.0,30.17,East,98,8.0,9.0,87,0.00,,,0.00,weatherlink.com 1.10,2013-04-15 09:50:00,
2013-04-15 06:05:00,54.2,50.0,30.17,East,90,9.0,10.0,85,0.00,,,0.00,weatherlink.com 1.10,2013-04-15 10:05:00,
2013-04-15 06:20:00,54.2,50.0,30.18,East,84,7.0,8.0,86,0.00,,,0.00,weatherlink.com 1.10,2013-04-15 10:20:00,
2013-04-15 06:35:00,54.2,50.0,30.19,East,95,6.0,9.0,85,0.01,,,0.01,weatherlink.com 1.10,2013-04-15 10:35:00,
2013-04-15 06:50:00,54.4,49.0,30.19,East,98,8.0,10.0,83,0.01,,,0.01,weatherlink.com 1.10,2013-04-15 10:50:00,
2013-04-15 07:05:00,54.3,50.0,30.20,ESE,104,7.0,9.0,85,0.01,,,0.01,weatherlink.com 1.10,2013-04-15 11:05:00,
2013-04-15 07:21:00,54.2,49.0,30.20,ESE,106,9.0,11.0,81,0.01,,,0.01,weatherlink.com 1.10,2013-04-15 11:21:00,
2013-04-15 07:36:00,54.1,49.0,30.21,East,97,8.0,9.0,82,0.00,,,0.01,weatherlink.com 1.10,2013-04-15 11:36:00,
2013-04-15 07:51:00,54.1,48.0,30.21,ESE,102,8.0,9.0,79,0.00,,,0.01,weatherlink.com 1.10,2013-04-15 11:51:00,
2013-04-15 08:06:00,54.2,47.0,30.21,East,91,10.0,10.0,78,0.00,,,0.01,weatherlink.com 1.10,2013-04-15 12:06:00,
2013-04-15 08:21:00,54.0,47.0,30.20,East,83,8.0,9.0,77,0.00,,,0.01,weatherlink.com 1.10,2013-04-15 12:21:00,
2013-04-15 08:51:00,53.8,47.0,30.21,ESE,103,10.0,11.0,79,0.00,,,0.01,weatherlink.com 1.10,2013-04-15 12:51:00,
2013-04-15 09:06:00,53.8,47.0,30.21,East,94,7.0,10.0,79,0.00,,,0.01,weatherlink.com 1.10,2013-04-15 13:06:00,
2013-04-15 09:36:00,54.1,48.0,30.21,East,92,8.0,8.0,80,0.00,,,0.01,weatherlink.com 1.10,2013-04-15 13:36:00,
2013-04-15 10:06:00,54.6,49.0,30.22,East,82,4.0,8.0,81,0.00,,,0.01,weatherlink.com 1.10,2013-04-15 14:06:00,
2013-04-15 10:21:00,54.8,48.0,30.22,ESE,109,6.0,8.0,79,0.00,,,0.01,weatherlink.com 1.10,2013-04-15 14:21:00,
2013-04-15 12:21:00,56.3,47.0,30.21,NE,54,6.0,13.0,72,0.00,,,0.01,weatherlink.com 1.10,2013-04-15 16:21:00,
2013-04-15 12:36:00,56.7,48.0,30.23,East,81,7.0,9.0,73,0.00,,,0.01,weatherlink.com 1.10,2013-04-15 16:36:00,
2013-04-15 12:51:00,57.0,49.0,30.23,East,89,6.0,8.0,74,0.00,,,0.01,weatherlink.com 1.10,2013-04-15 16:51:00,
2013-04-15 13:06:00,56.7,50.0,30.22,ESE,109,4.0,4.0,78,0.00,,,0.01,weatherlink.com 1.10,2013-04-15 17:06:00,
2013-04-15 13:21:00,57.0,50.0,30.22,ESE,109,7.0,9.0,78,0.00,,,0.01,weatherlink.com 1.10,2013-04-15 17:21:00,
2013-04-15 13:36:00,57.1,50.0,30.22,East,99,7.0,7.0,78,0.00,,,0.01,weatherlink.com 1.10,2013-04-15 17:36:00,
2013-04-15 14:06:00,57.9,49.0,30.22,East,80,8.0,9.0,72,0.00,,,0.01,weatherlink.com 1.10,2013-04-15 18:06:00,
2013-04-15 14:21:00,58.0,50.0,30.23,East,87,8.0,9.0,74,0.00,,,0.01,weatherlink.com 1.10,2013-04-15 18:21:00,
2013-04-15 14:36:00,57.8,51.0,30.22,ESE,102,5.0,7.0,78,0.00,,,0.01,weatherlink.com 1.10,2013-04-15 18:36:00,
2013-04-15 14:51:00,57.6,51.0,30.22,East,90,7.0,7.0,78,0.00,,,0.01,weatherlink.com 1.10,2013-04-15 18:51:00,
2013-04-15 15:06:00,58.3,50.0,30.22,ENE,71,5.0,6.0,75,0.00,,,0.01,weatherlink.com 1.10,2013-04-15 19:06:00,
2013-04-15 15:21:00,58.3,51.0,30.21,East,79,8.0,8.0,76,0.00,,,0.01,weatherlink.com 1.10,2013-04-15 19:21:00,
2013-04-15 15:36:00,58.4,51.0,30.21,East,89,9.0,9.0,75,0.00,,,0.01,weatherlink.com 1.10,2013-04-15 19:36:00,
2013-04-15 15:51:00,58.3,50.0,30.21,East,90,11.0,11.0,73,0.00,,,0.01,weatherlink.com 1.10,2013-04-15 19:51:00,
2013-04-15 16:06:00,58.3,49.0,30.22,ESE,104,8.0,11.0,72,0.00,,,0.01,weatherlink.com 1.10,2013-04-15 20:06:00,
2013-04-15 16:21:00,58.2,51.0,30.21,East,80,8.0,10.0,76,0.00,,,0.01,weatherlink.com 1.10,2013-04-15 20:21:00,
2013-04-15 16:36:00,58.1,51.0,30.21,ESE,112,6.0,8.0,76,0.00,,,0.01,weatherlink.com 1.10,2013-04-15 20:36:00,
2013-04-15 16:51:00,58.1,50.0,30.21,ESE,105,9.0,9.0,75,0.00,,,0.01,weatherlink.com 1.10,2013-04-15 20:51:00,
2013-04-15 17:06:00,58.0,50.0,30.21,East,82,8.0,9.0,75,0.00,,,0.01,weatherlink.com 1.10,2013-04-15 21:06:00,
2013-04-15 17:21:00,58.0,50.0,30.21,SE,124,11.0,11.0,76,0.00,,,0.01,weatherlink.com 1.10,2013-04-15 21:21:00,
2013-04-15 17:36:00,57.7,51.0,30.21,ESE,103,9.0,11.0,78,0.00,,,0.01,weatherlink.com 1.10,2013-04-15 21:36:00,
2013-04-15 17:51:00,57.6,51.0,30.21,East,95,9.0,10.0,78,0.00,,,0.01,weatherlink.com 1.10,2013-04-15 21:51:00,
2013-04-15 18:06:00,57.6,51.0,30.22,ESE,116,5.0,9.0,79,0.00,,,0.01,weatherlink.com 1.10,2013-04-15 22:06:00,
2013-04-15 18:21:00,57.4,51.0,30.22,East,98,7.0,8.0,79,0.00,,,0.01,weatherlink.com 1.10,2013-04-15 22:21:00,
2013-04-15 18:36:00,57.2,52.0,30.22,East,96,7.0,8.0,82,0.00,,,0.01,weatherlink.com 1.10,2013-04-15 22:36:00,
2013-04-15 18:51:00,57.3,51.0,30.23,East,97,7.0,8.0,80,0.00,,,0.01,weatherlink.com 1.10,2013-04-15 22:51:00,
2013-04-15 19:06:00,57.1,51.0,30.23,East,96,5.0,6.0,81,0.00,,,0.01,weatherlink.com 1.10,2013-04-15 23:06:00,
2013-04-15 19:21:00,57.0,51.0,30.23,East,91,5.0,5.0,81,0.00,,,0.01,weatherlink.com 1.10,2013-04-15 23:21:00,
2013-04-15 19:36:00,57.1,51.0,30.23,East,80,4.0,5.0,81,0.00,,,0.01,weatherlink.com 1.10,2013-04-15 23:36:00,
2013-04-15 19:51:00,57.2,51.0,30.24,East,80,3.0,4.0,79,0.00,,,0.01,weatherlink.com 1.10,2013-04-15 23:51:00,
2013-04-15 20:07:00,57.2,51.0,30.24,ENE,74,5.0,5.0,79,0.00,,,0.01,weatherlink.com 1.10,2013-04-16 00:07:00,
2013-04-15 20:22:00,57.2,51.0,30.24,East,86,6.0,6.0,79,0.00,,,0.01,weatherlink.com 1.10,2013-04-16 00:22:00,
2013-04-15 20:37:00,57.1,51.0,30.25,East,85,4.0,5.0,81,0.00,,,0.01,weatherlink.com 1.10,2013-04-16 00:37:00,
2013-04-15 20:52:00,56.8,51.0,30.24,East,83,6.0,7.0,82,0.00,,,0.01,weatherlink.com 1.10,2013-04-16 00:52:00,
2013-04-15 21:07:00,57.1,51.0,30.25,East,94,8.0,8.0,81,0.00,,,0.01,weatherlink.com 1.10,2013-04-16 01:07:00,
2013-04-15 21:22:00,57.3,52.0,30.25,ESE,102,7.0,8.0,81,0.00,,,0.01,weatherlink.com 1.10,2013-04-16 01:22:00,
2013-04-15 21:37:00,57.2,51.0,30.26,East,100,7.0,8.0,79,0.00,,,0.01,weatherlink.com 1.10,2013-04-16 01:37:00,
2013-04-15 21:52:00,57.2,51.0,30.26,ESE,110,6.0,8.0,79,0.00,,,0.01,weatherlink.com 1.10,2013-04-16 01:52:00,
2013-04-15 22:07:00,56.9,51.0,30.26,ESE,109,6.0,8.0,80,0.00,,,0.01,weatherlink.com 1.10,2013-04-16 02:07:00,
2013-04-15 22:22:00,57.0,50.0,30.26,ESE,104,9.0,10.0,77,0.00,,,0.01,weatherlink.com 1.10,2013-04-16 02:22:00,
2013-04-15 22:37:00,56.7,51.0,30.26,ESE,117,8.0,10.0,80,0.00,,,0.01,weatherlink.com 1.10,2013-04-16 02:37:00,
2013-04-15 22:52:00,56.6,50.0,30.26,East,97,10.0,12.0,79,0.00,,,0.01,weatherlink.com 1.10,2013-04-16 02:52:00,
2013-04-15 23:07:00,56.4,50.0,30.26,ESE,114,8.0,11.0,80,0.00,,,0.01,weatherlink.com 1.10,2013-04-16 03:07:00,
2013-04-15 23:22:00,56.1,51.0,30.26,ESE,103,8.0,8.0,82,0.00,,,0.01,weatherlink.com 1.10,2013-04-16 03:22:00,
2013-04-15 23:37:00,56.0,51.0,30.26,East,95,7.0,9.0,83,0.00,,,0.01,weatherlink.com 1.10,2013-04-16 03:37:00,
2013-04-15 23:52:00,55.8,51.0,30.27,ESE,108,7.0,7.0,83,0.00,,,0.01,weatherlink.com 1.10,2013-04-16 03:52:00,